Cadley, Georgia
Current Conditions -  °F | °C
As of 5:15 AM on Saturday 20 Dec 2014 (Local Time) from KHQU Reporting Station
Overcast Overcast  
Wind Chill: 48°   Ceiling: 6000
Heat Index: 48°   Visibility: 4mi
Dew Point: 48°   Wind: 0mph
Humidity: 100%   Direction: NA
Pressure: 30.18"   Gusts: NA
Location:  33.4918°N, 82.7343°W
Report Text: KHQU 201015Z AUTO 00000KT 4SM BKN060 OVC070 09/09 A3018 RMK AO1 T00900090
Loading
Personal Weather Stations






























Interactive Weather Map New forecast layout! Learn more

10-Day Weather Forecast

Advertisements
Track Severe Weather on mobile